sensor_id;sensor_type;location;lat;lon;timestamp;temperature;humidity
74416;SHT31;62850;42.428;25.618;2024-02-16T00:00:09;9.13;55.03
74416;SHT31;62850;42.428;25.618;2024-02-16T00:02:38;9.10;54.69
74416;SHT31;62850;42.428;25.618;2024-02-16T00:05:05;9.11;54.72
74416;SHT31;62850;42.428;25.618;2024-02-16T00:07:33;9.16;54.65
74416;SHT31;62850;42.428;25.618;2024-02-16T00:09:58;9.21;54.54
74416;SHT31;62850;42.428;25.618;2024-02-16T00:12:24;9.20;54.58
74416;SHT31;62850;42.428;25.618;2024-02-16T00:14:49;9.19;54.76
74416;SHT31;62850;42.428;25.618;2024-02-16T00:17:14;9.13;54.87
74416;SHT31;62850;42.428;25.618;2024-02-16T00:19:40;9.11;55.06
74416;SHT31;62850;42.428;25.618;2024-02-16T00:22:05;9.13;55.01
74416;SHT31;62850;42.428;25.618;2024-02-16T00:24:34;9.16;55.13
74416;SHT31;62850;42.428;25.618;2024-02-16T00:27:02;9.11;55.46
74416;SHT31;62850;42.428;25.618;2024-02-16T00:29:28;9.10;55.55
74416;SHT31;62850;42.428;25.618;2024-02-16T00:31:54;9.11;55.69
74416;SHT31;62850;42.428;25.618;2024-02-16T00:34:20;9.07;55.79
74416;SHT31;62850;42.428;25.618;2024-02-16T00:36:46;9.13;55.74
74416;SHT31;62850;42.428;25.618;2024-02-16T00:39:11;9.09;55.96
74416;SHT31;62850;42.428;25.618;2024-02-16T00:41:37;9.11;56.01
74416;SHT31;62850;42.428;25.618;2024-02-16T00:44:02;9.10;56.07
74416;SHT31;62850;42.428;25.618;2024-02-16T00:46:27;9.10;56.29
74416;SHT31;62850;42.428;25.618;2024-02-16T00:48:53;9.10;56.39
74416;SHT31;62850;42.428;25.618;2024-02-16T00:51:21;9.06;56.49
74416;SHT31;62850;42.428;25.618;2024-02-16T00:53:48;9.10;56.58
74416;SHT31;62850;42.428;25.618;2024-02-16T00:56:14;9.13;56.46
74416;SHT31;62850;42.428;25.618;2024-02-16T00:58:42;9.13;56.52
74416;SHT31;62850;42.428;25.618;2024-02-16T01:01:08;9.17;56.69
74416;SHT31;62850;42.428;25.618;2024-02-16T01:03:36;9.17;56.80
74416;SHT31;62850;42.428;25.618;2024-02-16T01:06:03;9.17;57.05
74416;SHT31;62850;42.428;25.618;2024-02-16T01:08:29;9.14;57.27
74416;SHT31;62850;42.428;25.618;2024-02-16T01:10:55;9.11;57.22
74416;SHT31;62850;42.428;25.618;2024-02-16T01:13:20;9.19;57.14
74416;SHT31;62850;42.428;25.618;2024-02-16T01:15:46;9.20;57.07
74416;SHT31;62850;42.428;25.618;2024-02-16T01:18:11;9.20;57.09
74416;SHT31;62850;42.428;25.618;2024-02-16T01:20:37;9.20;57.25
74416;SHT31;62850;42.428;25.618;2024-02-16T01:23:02;9.21;57.25
74416;SHT31;62850;42.428;25.618;2024-02-16T01:25:30;9.20;57.27
74416;SHT31;62850;42.428;25.618;2024-02-16T01:27:55;9.19;57.25
74416;SHT31;62850;42.428;25.618;2024-02-16T01:30:21;9.14;57.05
74416;SHT31;62850;42.428;25.618;2024-02-16T01:32:46;9.24;56.80
74416;SHT31;62850;42.428;25.618;2024-02-16T01:35:12;9.21;56.82
74416;SHT31;62850;42.428;25.618;2024-02-16T01:37:40;9.16;57.02
74416;SHT31;62850;42.428;25.618;2024-02-16T01:40:10;9.23;56.57
74416;SHT31;62850;42.428;25.618;2024-02-16T01:42:43;9.30;56.44
74416;SHT31;62850;42.428;25.618;2024-02-16T01:45:10;9.30;56.44
74416;SHT31;62850;42.428;25.618;2024-02-16T01:47:37;9.32;56.44
74416;SHT31;62850;42.428;25.618;2024-02-16T01:50:03;9.27;56.55
74416;SHT31;62850;42.428;25.618;2024-02-16T01:52:30;9.11;57.05
74416;SHT31;62850;42.428;25.618;2024-02-16T01:54:57;9.14;57.15
74416;SHT31;62850;42.428;25.618;2024-02-16T01:57:23;9.10;57.24
74416;SHT31;62850;42.428;25.618;2024-02-16T01:59:49;9.09;57.22
74416;SHT31;62850;42.428;25.618;2024-02-16T02:02:15;9.03;57.37
74416;SHT31;62850;42.428;25.618;2024-02-16T02:04:40;9.10;57.52
74416;SHT31;62850;42.428;25.618;2024-02-16T02:07:16;9.04;57.79
74416;SHT31;62850;42.428;25.618;2024-02-16T02:09:42;9.09;57.49
74416;SHT31;62850;42.428;25.618;2024-02-16T02:12:08;9.13;57.59
74416;SHT31;62850;42.428;25.618;2024-02-16T02:14:34;9.13;57.28
74416;SHT31;62850;42.428;25.618;2024-02-16T02:16:59;9.19;57.27
74416;SHT31;62850;42.428;25.618;2024-02-16T02:19:27;9.19;57.43
74416;SHT31;62850;42.428;25.618;2024-02-16T02:21:52;9.11;57.62
74416;SHT31;62850;42.428;25.618;2024-02-16T02:24:18;9.13;57.61
74416;SHT31;62850;42.428;25.618;2024-02-16T02:26:43;9.23;57.39
74416;SHT31;62850;42.428;25.618;2024-02-16T02:29:09;9.14;57.43
74416;SHT31;62850;42.428;25.618;2024-02-16T02:31:34;9.16;57.49
74416;SHT31;62850;42.428;25.618;2024-02-16T02:34:00;9.14;57.67
74416;SHT31;62850;42.428;25.618;2024-02-16T02:36:26;9.11;57.93
74416;SHT31;62850;42.428;25.618;2024-02-16T02:38:51;9.11;57.76
74416;SHT31;62850;42.428;25.618;2024-02-16T02:41:17;9.19;57.67
74416;SHT31;62850;42.428;25.618;2024-02-16T02:43:45;9.26;57.31
74416;SHT31;62850;42.428;25.618;2024-02-16T02:46:15;9.27;57.26
74416;SHT31;62850;42.428;25.618;2024-02-16T02:48:42;9.26;57.40
74416;SHT31;62850;42.428;25.618;2024-02-16T02:51:08;9.21;57.46
74416;SHT31;62850;42.428;25.618;2024-02-16T02:53:35;9.27;57.36
74416;SHT31;62850;42.428;25.618;2024-02-16T02:56:01;9.20;57.45
74416;SHT31;62850;42.428;25.618;2024-02-16T02:58:27;9.19;57.51
74416;SHT31;62850;42.428;25.618;2024-02-16T03:00:53;9.21;57.47
74416;SHT31;62850;42.428;25.618;2024-02-16T03:03:19;9.26;57.30
74416;SHT31;62850;42.428;25.618;2024-02-16T03:05:45;9.31;57.04
74416;SHT31;62850;42.428;25.618;2024-02-16T03:08:10;9.32;57.01
74416;SHT31;62850;42.428;25.618;2024-02-16T03:10:36;9.27;57.14
74416;SHT31;62850;42.428;25.618;2024-02-16T03:13:02;9.23;57.18
74416;SHT31;62850;42.428;25.618;2024-02-16T03:15:28;9.28;56.93
74416;SHT31;62850;42.428;25.618;2024-02-16T03:17:55;9.24;57.24
74416;SHT31;62850;42.428;25.618;2024-02-16T03:20:20;9.26;57.06
74416;SHT31;62850;42.428;25.618;2024-02-16T03:22:47;9.24;57.03
74416;SHT31;62850;42.428;25.618;2024-02-16T03:25:12;9.19;57.06
74416;SHT31;62850;42.428;25.618;2024-02-16T03:27:38;9.24;56.90
74416;SHT31;62850;42.428;25.618;2024-02-16T03:30:04;9.26;56.89
74416;SHT31;62850;42.428;25.618;2024-02-16T03:32:31;9.27;56.82
74416;SHT31;62850;42.428;25.618;2024-02-16T03:34:57;9.30;56.54
74416;SHT31;62850;42.428;25.618;2024-02-16T03:37:22;9.20;56.77
74416;SHT31;62850;42.428;25.618;2024-02-16T03:39:48;9.21;56.71
74416;SHT31;62850;42.428;25.618;2024-02-16T03:42:13;9.28;56.56
74416;SHT31;62850;42.428;25.618;2024-02-16T03:44:38;9.23;56.57
74416;SHT31;62850;42.428;25.618;2024-02-16T03:47:04;9.23;56.58
74416;SHT31;62850;42.428;25.618;2024-02-16T03:49:29;9.19;56.71
74416;SHT31;62850;42.428;25.618;2024-02-16T03:51:55;9.23;56.81
74416;SHT31;62850;42.428;25.618;2024-02-16T03:54:20;9.24;56.71
74416;SHT31;62850;42.428;25.618;2024-02-16T03:56:46;9.26;56.70
74416;SHT31;62850;42.428;25.618;2024-02-16T03:59:11;9.28;56.80
74416;SHT31;62850;42.428;25.618;2024-02-16T04:01:37;9.27;56.68
74416;SHT31;62850;42.428;25.618;2024-02-16T04:04:02;9.30;56.69
74416;SHT31;62850;42.428;25.618;2024-02-16T04:06:28;9.32;56.39
74416;SHT31;62850;42.428;25.618;2024-02-16T04:08:54;9.49;56.35
74416;SHT31;62850;42.428;25.618;2024-02-16T04:11:19;9.40;55.87
74416;SHT31;62850;42.428;25.618;2024-02-16T04:13:45;9.54;55.63
74416;SHT31;62850;42.428;25.618;2024-02-16T04:16:10;9.42;55.56
74416;SHT31;62850;42.428;25.618;2024-02-16T04:18:36;9.42;55.57
74416;SHT31;62850;42.428;25.618;2024-02-16T04:21:01;9.52;55.42
74416;SHT31;62850;42.428;25.618;2024-02-16T04:23:27;9.55;55.36
74416;SHT31;62850;42.428;25.618;2024-02-16T04:25:52;9.61;54.50
74416;SHT31;62850;42.428;25.618;2024-02-16T04:28:17;9.68;55.00
74416;SHT31;62850;42.428;25.618;2024-02-16T04:30:44;9.65;54.44
74416;SHT31;62850;42.428;25.618;2024-02-16T04:33:09;9.71;54.71
74416;SHT31;62850;42.428;25.618;2024-02-16T04:35:34;9.79;54.80
74416;SHT31;62850;42.428;25.618;2024-02-16T04:38:00;9.85;54.92
74416;SHT31;62850;42.428;25.618;2024-02-16T04:40:25;9.95;54.63
74416;SHT31;62850;42.428;25.618;2024-02-16T04:42:51;9.96;54.66
74416;SHT31;62850;42.428;25.618;2024-02-16T04:45:17;10.00;54.05
74416;SHT31;62850;42.428;25.618;2024-02-16T04:47:43;10.06;54.20
74416;SHT31;62850;42.428;25.618;2024-02-16T04:50:08;10.02;53.52
74416;SHT31;62850;42.428;25.618;2024-02-16T04:52:37;10.00;53.86
74416;SHT31;62850;42.428;25.618;2024-02-16T04:55:04;10.06;53.73
74416;SHT31;62850;42.428;25.618;2024-02-16T04:57:31;10.08;53.55
74416;SHT31;62850;42.428;25.618;2024-02-16T04:59:56;10.03;53.73
74416;SHT31;62850;42.428;25.618;2024-02-16T05:02:22;9.98;54.41
74416;SHT31;62850;42.428;25.618;2024-02-16T05:04:47;9.93;53.97
74416;SHT31;62850;42.428;25.618;2024-02-16T05:07:13;9.89;54.10
74416;SHT31;62850;42.428;25.618;2024-02-16T05:09:38;9.98;54.00
74416;SHT31;62850;42.428;25.618;2024-02-16T05:12:05;9.82;54.10
74416;SHT31;62850;42.428;25.618;2024-02-16T05:14:30;9.88;54.09
74416;SHT31;62850;42.428;25.618;2024-02-16T05:16:56;9.92;54.16
74416;SHT31;62850;42.428;25.618;2024-02-16T05:19:21;9.93;54.02
74416;SHT31;62850;42.428;25.618;2024-02-16T05:21:47;9.89;54.17
74416;SHT31;62850;42.428;25.618;2024-02-16T05:24:12;9.81;54.38
74416;SHT31;62850;42.428;25.618;2024-02-16T05:26:37;9.81;54.08
74416;SHT31;62850;42.428;25.618;2024-02-16T05:29:03;9.77;54.04
74416;SHT31;62850;42.428;25.618;2024-02-16T05:31:29;9.77;54.07
74416;SHT31;62850;42.428;25.618;2024-02-16T05:33:56;9.78;54.26
74416;SHT31;62850;42.428;25.618;2024-02-16T05:36:22;9.72;54.15
74416;SHT31;62850;42.428;25.618;2024-02-16T05:38:55;9.68;54.12
74416;SHT31;62850;42.428;25.618;2024-02-16T05:41:21;9.62;54.28
74416;SHT31;62850;42.428;25.618;2024-02-16T05:43:47;9.55;54.51
74416;SHT31;62850;42.428;25.618;2024-02-16T05:46:17;9.61;53.89
74416;SHT31;62850;42.428;25.618;2024-02-16T05:48:43;9.63;53.77
74416;SHT31;62850;42.428;25.618;2024-02-16T05:51:09;9.74;53.66
74416;SHT31;62850;42.428;25.618;2024-02-16T05:53:37;9.71;53.54
74416;SHT31;62850;42.428;25.618;2024-02-16T05:56:03;9.75;53.38
74416;SHT31;62850;42.428;25.618;2024-02-16T05:58:28;9.72;53.46
74416;SHT31;62850;42.428;25.618;2024-02-16T06:00:57;9.77;53.64
74416;SHT31;62850;42.428;25.618;2024-02-16T06:03:23;9.69;53.85
74416;SHT31;62850;42.428;25.618;2024-02-16T06:05:48;9.62;54.23
74416;SHT31;62850;42.428;25.618;2024-02-16T06:08:14;9.62;53.59
74416;SHT31;62850;42.428;25.618;2024-02-16T06:10:40;9.59;54.03
74416;SHT31;62850;42.428;25.618;2024-02-16T06:13:07;9.63;53.98
74416;SHT31;62850;42.428;25.618;2024-02-16T06:15:33;9.65;53.79
74416;SHT31;62850;42.428;25.618;2024-02-16T06:18:00;9.58;54.03
74416;SHT31;62850;42.428;25.618;2024-02-16T06:20:26;9.61;54.28
74416;SHT31;62850;42.428;25.618;2024-02-16T06:22:51;9.68;54.13
74416;SHT31;62850;42.428;25.618;2024-02-16T06:25:17;9.77;53.95
74416;SHT31;62850;42.428;25.618;2024-02-16T06:27:42;9.72;54.05
74416;SHT31;62850;42.428;25.618;2024-02-16T06:30:08;9.79;53.96
74416;SHT31;62850;42.428;25.618;2024-02-16T06:32:38;9.78;53.83
74416;SHT31;62850;42.428;25.618;2024-02-16T06:35:04;9.72;53.82
74416;SHT31;62850;42.428;25.618;2024-02-16T06:37:30;9.69;54.15
74416;SHT31;62850;42.428;25.618;2024-02-16T06:39:57;9.75;54.06
74416;SHT31;62850;42.428;25.618;2024-02-16T06:42:22;9.61;54.08
74416;SHT31;62850;42.428;25.618;2024-02-16T06:44:48;9.72;54.03
74416;SHT31;62850;42.428;25.618;2024-02-16T06:47:13;9.75;53.52
74416;SHT31;62850;42.428;25.618;2024-02-16T06:49:39;9.82;53.28
74416;SHT31;62850;42.428;25.618;2024-02-16T06:52:05;9.77;53.48
74416;SHT31;62850;42.428;25.618;2024-02-16T06:54:30;9.79;53.52
74416;SHT31;62850;42.428;25.618;2024-02-16T06:56:56;9.86;53.36
74416;SHT31;62850;42.428;25.618;2024-02-16T06:59:21;9.90;53.12
74416;SHT31;62850;42.428;25.618;2024-02-16T07:01:47;9.90;53.35
74416;SHT31;62850;42.428;25.618;2024-02-16T07:04:13;9.88;52.84
74416;SHT31;62850;42.428;25.618;2024-02-16T07:06:38;9.93;52.62
74416;SHT31;62850;42.428;25.618;2024-02-16T07:09:04;9.96;52.73
74416;SHT31;62850;42.428;25.618;2024-02-16T07:11:29;10.09;52.79
74416;SHT31;62850;42.428;25.618;2024-02-16T07:13:54;10.08;52.70
74416;SHT31;62850;42.428;25.618;2024-02-16T07:16:20;10.09;52.96
74416;SHT31;62850;42.428;25.618;2024-02-16T07:18:45;10.08;52.78
74416;SHT31;62850;42.428;25.618;2024-02-16T07:21:11;10.23;52.62
74416;SHT31;62850;42.428;25.618;2024-02-16T07:23:37;10.34;51.75
74416;SHT31;62850;42.428;25.618;2024-02-16T07:26:03;10.26;52.44
74416;SHT31;62850;42.428;25.618;2024-02-16T07:28:29;10.23;52.06
74416;SHT31;62850;42.428;25.618;2024-02-16T07:30:55;10.24;52.71
74416;SHT31;62850;42.428;25.618;2024-02-16T07:33:20;10.27;52.73
74416;SHT31;62850;42.428;25.618;2024-02-16T07:35:47;10.37;52.58
74416;SHT31;62850;42.428;25.618;2024-02-16T07:38:12;10.50;52.40
74416;SHT31;62850;42.428;25.618;2024-02-16T07:40:38;10.58;52.54
74416;SHT31;62850;42.428;25.618;2024-02-16T07:43:03;10.71;52.44
74416;SHT31;62850;42.428;25.618;2024-02-16T07:45:30;10.77;53.27
74416;SHT31;62850;42.428;25.618;2024-02-16T07:47:56;10.81;52.07
74416;SHT31;62850;42.428;25.618;2024-02-16T07:50:22;10.89;51.71
74416;SHT31;62850;42.428;25.618;2024-02-16T07:52:48;10.88;52.53
74416;SHT31;62850;42.428;25.618;2024-02-16T07:55:14;10.97;52.47
74416;SHT31;62850;42.428;25.618;2024-02-16T07:57:42;11.02;51.21
74416;SHT31;62850;42.428;25.618;2024-02-16T08:00:08;11.12;50.41
74416;SHT31;62850;42.428;25.618;2024-02-16T08:02:36;11.22;50.43
74416;SHT31;62850;42.428;25.618;2024-02-16T08:05:02;11.25;50.31
74416;SHT31;62850;42.428;25.618;2024-02-16T08:07:27;11.40;50.28
74416;SHT31;62850;42.428;25.618;2024-02-16T08:09:53;11.39;49.81
74416;SHT31;62850;42.428;25.618;2024-02-16T08:12:18;11.50;49.79
74416;SHT31;62850;42.428;25.618;2024-02-16T08:14:44;11.63;49.69
74416;SHT31;62850;42.428;25.618;2024-02-16T08:17:11;11.67;49.47
74416;SHT31;62850;42.428;25.618;2024-02-16T08:19:37;11.83;48.86
74416;SHT31;62850;42.428;25.618;2024-02-16T08:22:06;11.88;48.26
74416;SHT31;62850;42.428;25.618;2024-02-16T08:24:32;11.90;48.50
74416;SHT31;62850;42.428;25.618;2024-02-16T08:26:58;12.02;48.58
74416;SHT31;62850;42.428;25.618;2024-02-16T08:29:24;12.08;47.89
74416;SHT31;62850;42.428;25.618;2024-02-16T08:31:50;12.18;47.21
74416;SHT31;62850;42.428;25.618;2024-02-16T08:34:16;12.20;47.07
74416;SHT31;62850;42.428;25.618;2024-02-16T08:36:48;12.14;46.93
74416;SHT31;62850;42.428;25.618;2024-02-16T08:39:16;11.84;46.93
74416;SHT31;62850;42.428;25.618;2024-02-16T08:41:42;11.74;47.22
74416;SHT31;62850;42.428;25.618;2024-02-16T08:44:09;11.67;47.49
74416;SHT31;62850;42.428;25.618;2024-02-16T08:46:36;11.57;47.70
74416;SHT31;62850;42.428;25.618;2024-02-16T08:49:02;11.64;47.99
74416;SHT31;62850;42.428;25.618;2024-02-16T08:51:28;11.69;47.75
74416;SHT31;62850;42.428;25.618;2024-02-16T08:53:54;11.84;47.58
74416;SHT31;62850;42.428;25.618;2024-02-16T08:56:19;11.83;47.56
74416;SHT31;62850;42.428;25.618;2024-02-16T08:58:45;11.69;47.80
74416;SHT31;62850;42.428;25.618;2024-02-16T09:01:10;11.76;47.77
74416;SHT31;62850;42.428;25.618;2024-02-16T09:03:35;11.77;47.75
74416;SHT31;62850;42.428;25.618;2024-02-16T09:06:03;11.88;47.50
74416;SHT31;62850;42.428;25.618;2024-02-16T09:08:28;12.07;47.58
74416;SHT31;62850;42.428;25.618;2024-02-16T09:10:59;12.18;47.33
74416;SHT31;62850;42.428;25.618;2024-02-16T09:13:24;12.35;47.32
74416;SHT31;62850;42.428;25.618;2024-02-16T09:15:49;12.44;46.63
74416;SHT31;62850;42.428;25.618;2024-02-16T09:18:17;12.50;46.54
74416;SHT31;62850;42.428;25.618;2024-02-16T09:20:42;12.56;46.57
74416;SHT31;62850;42.428;25.618;2024-02-16T09:23:07;12.57;45.94
74416;SHT31;62850;42.428;25.618;2024-02-16T09:25:34;12.28;46.50
74416;SHT31;62850;42.428;25.618;2024-02-16T09:28:00;12.04;46.70
74416;SHT31;62850;42.428;25.618;2024-02-16T09:30:25;11.97;47.44
74416;SHT31;62850;42.428;25.618;2024-02-16T09:32:51;11.91;48.02
74416;SHT31;62850;42.428;25.618;2024-02-16T09:35:17;11.88;47.92
74416;SHT31;62850;42.428;25.618;2024-02-16T09:37:42;12.02;47.75
74416;SHT31;62850;42.428;25.618;2024-02-16T09:40:08;12.02;47.66
74416;SHT31;62850;42.428;25.618;2024-02-16T09:42:37;11.97;47.79
74416;SHT31;62850;42.428;25.618;2024-02-16T09:45:05;12.10;47.81
74416;SHT31;62850;42.428;25.618;2024-02-16T09:47:32;12.07;47.31
74416;SHT31;62850;42.428;25.618;2024-02-16T09:49:58;12.02;47.50
74416;SHT31;62850;42.428;25.618;2024-02-16T09:52:24;11.98;47.49
74416;SHT31;62850;42.428;25.618;2024-02-16T09:54:49;12.01;47.32
74416;SHT31;62850;42.428;25.618;2024-02-16T09:57:18;12.13;47.77
74416;SHT31;62850;42.428;25.618;2024-02-16T09:59:44;12.18;47.97
74416;SHT31;62850;42.428;25.618;2024-02-16T10:02:10;12.21;48.03
74416;SHT31;62850;42.428;25.618;2024-02-16T10:04:36;12.22;47.91
74416;SHT31;62850;42.428;25.618;2024-02-16T10:07:01;12.11;47.27
74416;SHT31;62850;42.428;25.618;2024-02-16T10:09:28;12.13;47.28
74416;SHT31;62850;42.428;25.618;2024-02-16T10:11:59;12.08;47.60
74416;SHT31;62850;42.428;25.618;2024-02-16T10:14:25;12.02;48.03
74416;SHT31;62850;42.428;25.618;2024-02-16T10:17:01;11.98;47.99
74416;SHT31;62850;42.428;25.618;2024-02-16T10:19:28;11.99;47.96
74416;SHT31;62850;42.428;25.618;2024-02-16T10:21:53;12.04;47.92
74416;SHT31;62850;42.428;25.618;2024-02-16T10:24:21;11.95;47.89
74416;SHT31;62850;42.428;25.618;2024-02-16T10:26:47;11.91;47.69
74416;SHT31;62850;42.428;25.618;2024-02-16T10:29:17;11.91;48.14
74416;SHT31;62850;42.428;25.618;2024-02-16T10:31:45;11.94;48.63
74416;SHT31;62850;42.428;25.618;2024-02-16T10:34:10;12.02;48.64
74416;SHT31;62850;42.428;25.618;2024-02-16T10:36:37;12.04;48.61
74416;SHT31;62850;42.428;25.618;2024-02-16T10:39:05;12.07;48.33
74416;SHT31;62850;42.428;25.618;2024-02-16T10:41:37;12.02;48.72
74416;SHT31;62850;42.428;25.618;2024-02-16T10:44:04;12.11;48.70
74416;SHT31;62850;42.428;25.618;2024-02-16T10:46:30;12.11;48.01
74416;SHT31;62850;42.428;25.618;2024-02-16T10:48:55;12.14;48.00
74416;SHT31;62850;42.428;25.618;2024-02-16T10:51:40;12.17;47.86
74416;SHT31;62850;42.428;25.618;2024-02-16T10:54:08;12.21;48.13
74416;SHT31;62850;42.428;25.618;2024-02-16T10:56:36;12.20;48.05
74416;SHT31;62850;42.428;25.618;2024-02-16T10:59:07;12.31;47.98
74416;SHT31;62850;42.428;25.618;2024-02-16T11:01:42;12.26;48.04
74416;SHT31;62850;42.428;25.618;2024-02-16T11:04:16;12.21;48.37
74416;SHT31;62850;42.428;25.618;2024-02-16T11:06:51;12.20;48.42
74416;SHT31;62850;42.428;25.618;2024-02-16T11:11:54;11.93;49.22
74416;SHT31;62850;42.428;25.618;2024-02-16T11:14:21;11.87;49.46
74416;SHT31;62850;42.428;25.618;2024-02-16T11:16:47;11.87;49.79
74416;SHT31;62850;42.428;25.618;2024-02-16T11:19:13;11.91;49.91
74416;SHT31;62850;42.428;25.618;2024-02-16T11:21:57;11.97;50.00
74416;SHT31;62850;42.428;25.618;2024-02-16T11:24:30;11.98;49.92
74416;SHT31;62850;42.428;25.618;2024-02-16T11:26:56;11.87;50.08
74416;SHT31;62850;42.428;25.618;2024-02-16T11:29:22;11.81;50.20
74416;SHT31;62850;42.428;25.618;2024-02-16T11:31:47;11.70;50.22
74416;SHT31;62850;42.428;25.618;2024-02-16T11:34:23;11.60;50.47
74416;SHT31;62850;42.428;25.618;2024-02-16T11:36:48;11.70;50.17
74416;SHT31;62850;42.428;25.618;2024-02-16T11:39:14;11.76;50.02
74416;SHT31;62850;42.428;25.618;2024-02-16T11:41:42;11.73;49.86
74416;SHT31;62850;42.428;25.618;2024-02-16T11:44:08;11.67;49.76
74416;SHT31;62850;42.428;25.618;2024-02-16T11:46:34;11.66;49.70
74416;SHT31;62850;42.428;25.618;2024-02-16T11:49:05;11.60;49.80
74416;SHT31;62850;42.428;25.618;2024-02-16T11:51:30;11.59;50.19
74416;SHT31;62850;42.428;25.618;2024-02-16T11:53:56;11.70;50.33
74416;SHT31;62850;42.428;25.618;2024-02-16T11:56:23;11.56;50.43
74416;SHT31;62850;42.428;25.618;2024-02-16T11:58:52;11.59;50.73
74416;SHT31;62850;42.428;25.618;2024-02-16T12:01:19;11.63;50.47
74416;SHT31;62850;42.428;25.618;2024-02-16T12:03:44;11.60;50.79
74416;SHT31;62850;42.428;25.618;2024-02-16T12:06:19;11.78;50.65
74416;SHT31;62850;42.428;25.618;2024-02-16T12:08:46;11.88;50.72
74416;SHT31;62850;42.428;25.618;2024-02-16T12:11:12;11.95;50.17
74416;SHT31;62850;42.428;25.618;2024-02-16T12:13:39;11.86;50.29
74416;SHT31;62850;42.428;25.618;2024-02-16T12:16:05;11.88;50.55
74416;SHT31;62850;42.428;25.618;2024-02-16T12:18:32;11.95;50.29
74416;SHT31;62850;42.428;25.618;2024-02-16T12:21:04;11.91;50.06
74416;SHT31;62850;42.428;25.618;2024-02-16T12:23:31;11.93;49.94
74416;SHT31;62850;42.428;25.618;2024-02-16T12:25:57;11.80;50.01
74416;SHT31;62850;42.428;25.618;2024-02-16T12:28:27;11.87;49.97
74416;SHT31;62850;42.428;25.618;2024-02-16T12:30:54;11.90;50.01
74416;SHT31;62850;42.428;25.618;2024-02-16T12:33:23;12.01;50.02
74416;SHT31;62850;42.428;25.618;2024-02-16T12:35:49;12.01;49.53
74416;SHT31;62850;42.428;25.618;2024-02-16T12:38:15;12.10;49.72
74416;SHT31;62850;42.428;25.618;2024-02-16T12:40:45;12.08;49.63
74416;SHT31;62850;42.428;25.618;2024-02-16T12:43:11;12.11;49.60
74416;SHT31;62850;42.428;25.618;2024-02-16T12:45:38;12.14;49.91
74416;SHT31;62850;42.428;25.618;2024-02-16T12:48:03;12.22;49.53
74416;SHT31;62850;42.428;25.618;2024-02-16T12:50:30;12.36;49.38
74416;SHT31;62850;42.428;25.618;2024-02-16T12:52:56;12.42;49.15
74416;SHT31;62850;42.428;25.618;2024-02-16T12:55:22;12.34;49.32
74416;SHT31;62850;42.428;25.618;2024-02-16T12:57:49;12.46;49.05
74416;SHT31;62850;42.428;25.618;2024-02-16T13:00:17;12.57;48.97
74416;SHT31;62850;42.428;25.618;2024-02-16T13:02:43;12.55;49.07
74416;SHT31;62850;42.428;25.618;2024-02-16T13:05:08;12.55;48.78
74416;SHT31;62850;42.428;25.618;2024-02-16T13:07:34;12.63;48.68
74416;SHT31;62850;42.428;25.618;2024-02-16T13:10:00;12.46;48.71
74416;SHT31;62850;42.428;25.618;2024-02-16T13:12:25;12.44;48.87
74416;SHT31;62850;42.428;25.618;2024-02-16T13:14:51;12.38;49.06
74416;SHT31;62850;42.428;25.618;2024-02-16T13:17:16;12.25;49.29
74416;SHT31;62850;42.428;25.618;2024-02-16T13:19:42;12.44;49.23
74416;SHT31;62850;42.428;25.618;2024-02-16T13:22:07;12.48;48.84
74416;SHT31;62850;42.428;25.618;2024-02-16T13:24:33;12.29;49.16
74416;SHT31;62850;42.428;25.618;2024-02-16T13:26:59;12.32;49.32
74416;SHT31;62850;42.428;25.618;2024-02-16T13:29:24;12.34;49.36
74416;SHT31;62850;42.428;25.618;2024-02-16T13:31:50;12.25;49.43
74416;SHT31;62850;42.428;25.618;2024-02-16T13:34:15;12.20;49.49
74416;SHT31;62850;42.428;25.618;2024-02-16T13:36:40;12.18;49.85
74416;SHT31;62850;42.428;25.618;2024-02-16T13:39:07;12.22;49.82
74416;SHT31;62850;42.428;25.618;2024-02-16T13:41:33;12.15;50.03
74416;SHT31;62850;42.428;25.618;2024-02-16T13:43:58;12.10;50.15
74416;SHT31;62850;42.428;25.618;2024-02-16T13:46:24;11.91;50.79
74416;SHT31;62850;42.428;25.618;2024-02-16T13:48:49;11.86;50.81
74416;SHT31;62850;42.428;25.618;2024-02-16T13:51:15;11.93;50.67
74416;SHT31;62850;42.428;25.618;2024-02-16T13:53:40;11.90;50.98
74416;SHT31;62850;42.428;25.618;2024-02-16T13:56:06;11.95;50.79
74416;SHT31;62850;42.428;25.618;2024-02-16T13:58:32;12.01;50.70
74416;SHT31;62850;42.428;25.618;2024-02-16T14:01:00;12.02;50.60
74416;SHT31;62850;42.428;25.618;2024-02-16T14:03:28;12.13;50.34
74416;SHT31;62850;42.428;25.618;2024-02-16T14:05:53;12.10;50.59
74416;SHT31;62850;42.428;25.618;2024-02-16T14:08:19;12.04;50.44
74416;SHT31;62850;42.428;25.618;2024-02-16T14:10:44;12.11;49.99
74416;SHT31;62850;42.428;25.618;2024-02-16T14:13:10;12.10;50.11
74416;SHT31;62850;42.428;25.618;2024-02-16T14:15:35;12.02;50.06
74416;SHT31;62850;42.428;25.618;2024-02-16T14:18:01;11.94;50.49
74416;SHT31;62850;42.428;25.618;2024-02-16T14:20:26;11.98;50.23
74416;SHT31;62850;42.428;25.618;2024-02-16T14:22:52;12.01;50.24
74416;SHT31;62850;42.428;25.618;2024-02-16T14:25:17;11.97;50.34
74416;SHT31;62850;42.428;25.618;2024-02-16T14:27:44;11.73;50.58
74416;SHT31;62850;42.428;25.618;2024-02-16T14:30:14;11.69;50.74
74416;SHT31;62850;42.428;25.618;2024-02-16T14:32:39;11.60;51.13
74416;SHT31;62850;42.428;25.618;2024-02-16T14:35:06;11.55;51.34
74416;SHT31;62850;42.428;25.618;2024-02-16T14:37:32;11.49;51.47
74416;SHT31;62850;42.428;25.618;2024-02-16T14:39:58;11.50;51.48
74416;SHT31;62850;42.428;25.618;2024-02-16T14:42:24;11.53;51.65
74416;SHT31;62850;42.428;25.618;2024-02-16T14:44:50;11.52;51.84
74416;SHT31;62850;42.428;25.618;2024-02-16T14:47:16;11.43;51.88
74416;SHT31;62850;42.428;25.618;2024-02-16T14:49:42;11.20;52.59
74416;SHT31;62850;42.428;25.618;2024-02-16T14:52:07;11.22;52.68
74416;SHT31;62850;42.428;25.618;2024-02-16T14:54:34;11.26;52.77
74416;SHT31;62850;42.428;25.618;2024-02-16T14:57:00;11.26;52.90
74416;SHT31;62850;42.428;25.618;2024-02-16T14:59:25;11.20;53.06
74416;SHT31;62850;42.428;25.618;2024-02-16T15:01:52;11.15;53.43
74416;SHT31;62850;42.428;25.618;2024-02-16T15:04:17;11.12;53.53
74416;SHT31;62850;42.428;25.618;2024-02-16T15:06:43;10.97;53.75
74416;SHT31;62850;42.428;25.618;2024-02-16T15:09:08;10.98;53.93
74416;SHT31;62850;42.428;25.618;2024-02-16T15:11:35;10.92;54.15
74416;SHT31;62850;42.428;25.618;2024-02-16T15:14:01;10.84;54.37
74416;SHT31;62850;42.428;25.618;2024-02-16T15:16:26;10.71;54.58
74416;SHT31;62850;42.428;25.618;2024-02-16T15:18:52;10.78;54.57